sensor_id;sensor_type;location;lat;lon;timestamp;temperature;humidity
46492;DHT22;32206;51.446;6.792;2023-07-13T00:01:16;18.80;99.90
46492;DHT22;32206;51.446;6.792;2023-07-13T00:03:42;18.80;99.90
46492;DHT22;32206;51.446;6.792;2023-07-13T00:06:10;18.80;99.90
46492;DHT22;32206;51.446;6.792;2023-07-13T00:08:36;18.80;99.90
46492;DHT22;32206;51.446;6.792;2023-07-13T00:11:02;18.80;99.90
46492;DHT22;32206;51.446;6.792;2023-07-13T00:13:29;18.80;99.90
46492;DHT22;32206;51.446;6.792;2023-07-13T00:15:56;18.80;99.90
46492;DHT22;32206;51.446;6.792;2023-07-13T00:18:22;18.70;99.90
46492;DHT22;32206;51.446;6.792;2023-07-13T00:20:48;18.70;99.90
46492;DHT22;32206;51.446;6.792;2023-07-13T00:23:14;18.60;99.90
46492;DHT22;32206;51.446;6.792;2023-07-13T00:25:40;18.60;99.90
46492;DHT22;32206;51.446;6.792;2023-07-13T00:28:06;18.60;99.90
46492;DHT22;32206;51.446;6.792;2023-07-13T00:51:03;18.40;99.90
46492;DHT22;32206;51.446;6.792;2023-07-13T00:53:31;18.40;99.90
46492;DHT22;32206;51.446;6.792;2023-07-13T00:55:58;18.30;99.90
46492;DHT22;32206;51.446;6.792;2023-07-13T00:58:25;18.30;1.00
46492;DHT22;32206;51.446;6.792;2023-07-13T01:00:51;18.30;1.00
46492;DHT22;32206;51.446;6.792;2023-07-13T01:03:18;18.30;1.00
46492;DHT22;32206;51.446;6.792;2023-07-13T01:05:46;18.40;1.00
46492;DHT22;32206;51.446;6.792;2023-07-13T01:08:12;18.40;1.00
46492;DHT22;32206;51.446;6.792;2023-07-13T01:10:38;18.40;1.00
46492;DHT22;32206;51.446;6.792;2023-07-13T01:13:08;18.30;1.00
46492;DHT22;32206;51.446;6.792;2023-07-13T01:15:38;18.30;1.00
46492;DHT22;32206;51.446;6.792;2023-07-13T01:18:07;18.30;1.00
46492;DHT22;32206;51.446;6.792;2023-07-13T01:20:33;18.30;1.00
46492;DHT22;32206;51.446;6.792;2023-07-13T01:23:06;18.20;24.20
46492;DHT22;32206;51.446;6.792;2023-07-13T01:29:11;18.10;99.90
46492;DHT22;32206;51.446;6.792;2023-07-13T01:31:37;18.10;99.90
46492;DHT22;32206;51.446;6.792;2023-07-13T01:34:02;18.10;99.90
46492;DHT22;32206;51.446;6.792;2023-07-13T01:46:35;17.90;99.90
46492;DHT22;32206;51.446;6.792;2023-07-13T01:49:01;17.90;99.90
46492;DHT22;32206;51.446;6.792;2023-07-13T01:51:27;17.80;99.90
46492;DHT22;32206;51.446;6.792;2023-07-13T01:53:53;17.80;1.00
46492;DHT22;32206;51.446;6.792;2023-07-13T01:56:19;17.80;1.00
46492;DHT22;32206;51.446;6.792;2023-07-13T01:58:45;17.70;2.40
46492;DHT22;32206;51.446;6.792;2023-07-13T02:01:11;17.70;52.20
46492;DHT22;32206;51.446;6.792;2023-07-13T02:03:37;17.70;84.10
46492;DHT22;32206;51.446;6.792;2023-07-13T02:06:02;17.70;1.00
46492;DHT22;32206;51.446;6.792;2023-07-13T02:08:28;17.70;1.00
46492;DHT22;32206;51.446;6.792;2023-07-13T02:10:54;17.60;1.10
46492;DHT22;32206;51.446;6.792;2023-07-13T02:13:19;17.60;1.00
46492;DHT22;32206;51.446;6.792;2023-07-13T02:15:45;17.60;99.90
46492;DHT22;32206;51.446;6.792;2023-07-13T02:18:11;17.60;1.00
46492;DHT22;32206;51.446;6.792;2023-07-13T02:20:37;17.60;1.00
46492;DHT22;32206;51.446;6.792;2023-07-13T02:23:03;17.60;99.90
46492;DHT22;32206;51.446;6.792;2023-07-13T02:25:29;17.50;1.00
46492;DHT22;32206;51.446;6.792;2023-07-13T02:27:54;17.50;1.00
46492;DHT22;32206;51.446;6.792;2023-07-13T02:30:20;17.50;1.00
46492;DHT22;32206;51.446;6.792;2023-07-13T02:32:48;17.40;99.90
46492;DHT22;32206;51.446;6.792;2023-07-13T02:35:13;17.40;1.00
46492;DHT22;32206;51.446;6.792;2023-07-13T02:37:39;17.40;94.40
46492;DHT22;32206;51.446;6.792;2023-07-13T02:40:05;17.40;99.90
46492;DHT22;32206;51.446;6.792;2023-07-13T02:42:35;17.40;1.00
46492;DHT22;32206;51.446;6.792;2023-07-13T02:45:00;17.20;85.50
46492;DHT22;32206;51.446;6.792;2023-07-13T02:54:00;17.20;1.00
46492;DHT22;32206;51.446;6.792;2023-07-13T02:56:28;17.20;18.70
46492;DHT22;32206;51.446;6.792;2023-07-13T02:58:54;17.20;1.00
46492;DHT22;32206;51.446;6.792;2023-07-13T03:01:21;17.20;90.10
46492;DHT22;32206;51.446;6.792;2023-07-13T03:07:10;17.10;81.90
46492;DHT22;32206;51.446;6.792;2023-07-13T03:09:36;17.10;22.20
46492;DHT22;32206;51.446;6.792;2023-07-13T03:12:02;17.10;1.00
46492;DHT22;32206;51.446;6.792;2023-07-13T03:14:28;17.00;1.00
46492;DHT22;32206;51.446;6.792;2023-07-13T03:16:54;17.00;99.90
46492;DHT22;32206;51.446;6.792;2023-07-13T03:22:42;17.00;99.90
46492;DHT22;32206;51.446;6.792;2023-07-13T03:28:30;17.00;99.90
46492;DHT22;32206;51.446;6.792;2023-07-13T03:41:02;16.90;99.90
46492;DHT22;32206;51.446;6.792;2023-07-13T03:43:27;17.00;85.30
46492;DHT22;32206;51.446;6.792;2023-07-13T03:45:54;16.90;94.50
46492;DHT22;32206;51.446;6.792;2023-07-13T03:48:20;16.90;99.90
46492;DHT22;32206;51.446;6.792;2023-07-13T03:50:47;16.80;99.90
46492;DHT22;32206;51.446;6.792;2023-07-13T03:53:15;16.90;99.90
46492;DHT22;32206;51.446;6.792;2023-07-13T03:55:41;16.90;99.90
46492;DHT22;32206;51.446;6.792;2023-07-13T04:00:55;16.90;99.90
46492;DHT22;32206;51.446;6.792;2023-07-13T04:03:21;16.90;99.90
46492;DHT22;32206;51.446;6.792;2023-07-13T04:05:47;16.90;99.90
46492;DHT22;32206;51.446;6.792;2023-07-13T04:08:13;16.80;99.90
46492;DHT22;32206;51.446;6.792;2023-07-13T04:10:39;16.90;99.90
46492;DHT22;32206;51.446;6.792;2023-07-13T04:13:05;16.80;99.90
46492;DHT22;32206;51.446;6.792;2023-07-13T04:15:32;16.90;99.90
46492;DHT22;32206;51.446;6.792;2023-07-13T04:17:58;16.90;99.90
46492;DHT22;32206;51.446;6.792;2023-07-13T04:20:25;16.90;99.90
46492;DHT22;32206;51.446;6.792;2023-07-13T04:22:51;16.90;99.90
46492;DHT22;32206;51.446;6.792;2023-07-13T04:25:19;17.00;99.90
46492;DHT22;32206;51.446;6.792;2023-07-13T04:27:44;16.90;99.90
46492;DHT22;32206;51.446;6.792;2023-07-13T04:30:10;16.90;99.90
46492;DHT22;32206;51.446;6.792;2023-07-13T04:32:36;16.90;99.90
46492;DHT22;32206;51.446;6.792;2023-07-13T04:35:01;16.90;99.90
46492;DHT22;32206;51.446;6.792;2023-07-13T04:37:27;16.90;1.00
46492;DHT22;32206;51.446;6.792;2023-07-13T04:39:52;16.80;1.00
46492;DHT22;32206;51.446;6.792;2023-07-13T04:42:18;16.90;1.00
46492;DHT22;32206;51.446;6.792;2023-07-13T04:48:06;16.90;1.00
46492;DHT22;32206;51.446;6.792;2023-07-13T04:50:32;17.00;1.00
46492;DHT22;32206;51.446;6.792;2023-07-13T04:52:58;17.00;1.00
46492;DHT22;32206;51.446;6.792;2023-07-13T04:55:24;16.90;1.00
46492;DHT22;32206;51.446;6.792;2023-07-13T04:57:51;16.80;1.00
46492;DHT22;32206;51.446;6.792;2023-07-13T05:00:16;16.90;1.00
46492;DHT22;32206;51.446;6.792;2023-07-13T05:02:45;16.90;1.00
46492;DHT22;32206;51.446;6.792;2023-07-13T05:05:42;16.80;1.00
46492;DHT22;32206;51.446;6.792;2023-07-13T05:08:08;16.80;1.00
46492;DHT22;32206;51.446;6.792;2023-07-13T05:10:35;16.80;1.00
46492;DHT22;32206;51.446;6.792;2023-07-13T05:13:01;16.80;1.00
46492;DHT22;32206;51.446;6.792;2023-07-13T05:15:26;16.80;1.00
46492;DHT22;32206;51.446;6.792;2023-07-13T05:17:52;16.80;1.00
46492;DHT22;32206;51.446;6.792;2023-07-13T05:20:19;16.80;1.00
46492;DHT22;32206;51.446;6.792;2023-07-13T05:22:45;16.80;1.00
46492;DHT22;32206;51.446;6.792;2023-07-13T05:25:14;16.80;1.00
46492;DHT22;32206;51.446;6.792;2023-07-13T05:34:24;16.90;1.00
46492;DHT22;32206;51.446;6.792;2023-07-13T05:36:50;16.90;1.00
46492;DHT22;32206;51.446;6.792;2023-07-13T05:39:16;16.90;1.00
46492;DHT22;32206;51.446;6.792;2023-07-13T05:48:30;17.00;1.00
46492;DHT22;32206;51.446;6.792;2023-07-13T05:50:55;17.00;1.00
46492;DHT22;32206;51.446;6.792;2023-07-13T05:53:21;17.10;1.00
46492;DHT22;32206;51.446;6.792;2023-07-13T05:55:47;17.00;1.00
46492;DHT22;32206;51.446;6.792;2023-07-13T05:58:16;17.00;1.00
46492;DHT22;32206;51.446;6.792;2023-07-13T06:00:42;17.10;1.00
46492;DHT22;32206;51.446;6.792;2023-07-13T06:03:09;17.10;1.00
46492;DHT22;32206;51.446;6.792;2023-07-13T06:05:36;17.10;1.00
46492;DHT22;32206;51.446;6.792;2023-07-13T06:08:04;17.10;1.00
46492;DHT22;32206;51.446;6.792;2023-07-13T06:10:32;17.10;1.00
46492;DHT22;32206;51.446;6.792;2023-07-13T06:12:57;17.20;1.00
46492;DHT22;32206;51.446;6.792;2023-07-13T06:15:23;17.20;1.00
46492;DHT22;32206;51.446;6.792;2023-07-13T06:17:48;17.30;1.00
46492;DHT22;32206;51.446;6.792;2023-07-13T06:20:14;17.40;1.00
46492;DHT22;32206;51.446;6.792;2023-07-13T06:22:40;17.50;1.00
46492;DHT22;32206;51.446;6.792;2023-07-13T06:25:06;17.50;1.00
46492;DHT22;32206;51.446;6.792;2023-07-13T06:27:32;17.60;1.00
46492;DHT22;32206;51.446;6.792;2023-07-13T06:29:57;17.50;1.00
46492;DHT22;32206;51.446;6.792;2023-07-13T06:32:23;17.60;1.00
46492;DHT22;32206;51.446;6.792;2023-07-13T06:34:48;17.60;1.00
46492;DHT22;32206;51.446;6.792;2023-07-13T06:37:17;17.70;1.00
46492;DHT22;32206;51.446;6.792;2023-07-13T06:39:43;17.80;1.00
46492;DHT22;32206;51.446;6.792;2023-07-13T06:42:09;17.90;1.00
46492;DHT22;32206;51.446;6.792;2023-07-13T06:44:35;17.90;1.00
46492;DHT22;32206;51.446;6.792;2023-07-13T06:47:03;17.90;1.00
46492;DHT22;32206;51.446;6.792;2023-07-13T06:49:29;17.90;1.00
46492;DHT22;32206;51.446;6.792;2023-07-13T06:51:54;17.90;1.00
46492;DHT22;32206;51.446;6.792;2023-07-13T06:54:20;17.90;1.00
46492;DHT22;32206;51.446;6.792;2023-07-13T06:56:46;17.90;1.00
46492;DHT22;32206;51.446;6.792;2023-07-13T06:59:12;17.80;1.00
46492;DHT22;32206;51.446;6.792;2023-07-13T07:01:37;17.80;1.00
46492;DHT22;32206;51.446;6.792;2023-07-13T07:10:48;17.70;1.00
46492;DHT22;32206;51.446;6.792;2023-07-13T07:23:19;17.80;1.00
46492;DHT22;32206;51.446;6.792;2023-07-13T07:25:45;17.90;1.00
46492;DHT22;32206;51.446;6.792;2023-07-13T07:28:15;17.90;1.00
46492;DHT22;32206;51.446;6.792;2023-07-13T07:30:46;18.00;1.00
46492;DHT22;32206;51.446;6.792;2023-07-13T07:33:12;18.10;1.00
46492;DHT22;32206;51.446;6.792;2023-07-13T07:35:38;18.10;1.00
46492;DHT22;32206;51.446;6.792;2023-07-13T07:38:04;18.10;1.00
46492;DHT22;32206;51.446;6.792;2023-07-13T07:40:29;18.10;1.00
46492;DHT22;32206;51.446;6.792;2023-07-13T07:42:56;18.10;1.00
46492;DHT22;32206;51.446;6.792;2023-07-13T07:45:21;18.10;1.00
46492;DHT22;32206;51.446;6.792;2023-07-13T07:47:47;18.10;1.00
46492;DHT22;32206;51.446;6.792;2023-07-13T07:50:13;18.20;1.00
46492;DHT22;32206;51.446;6.792;2023-07-13T07:52:39;18.20;1.00
46492;DHT22;32206;51.446;6.792;2023-07-13T07:55:06;18.20;1.00
46492;DHT22;32206;51.446;6.792;2023-07-13T07:57:32;18.30;1.00
46492;DHT22;32206;51.446;6.792;2023-07-13T07:59:58;18.40;1.00
46492;DHT22;32206;51.446;6.792;2023-07-13T08:05:46;18.50;1.00
46492;DHT22;32206;51.446;6.792;2023-07-13T08:08:11;18.60;99.90
46492;DHT22;32206;51.446;6.792;2023-07-13T08:10:37;18.60;99.90
46492;DHT22;32206;51.446;6.792;2023-07-13T08:13:03;18.70;99.90
46492;DHT22;32206;51.446;6.792;2023-07-13T08:15:28;18.70;99.90
46492;DHT22;32206;51.446;6.792;2023-07-13T08:17:54;18.60;99.90
46492;DHT22;32206;51.446;6.792;2023-07-13T08:20:20;18.60;99.90
46492;DHT22;32206;51.446;6.792;2023-07-13T08:22:46;18.60;99.90
46492;DHT22;32206;51.446;6.792;2023-07-13T08:28:34;19.10;99.90
46492;DHT22;32206;51.446;6.792;2023-07-13T08:31:04;19.30;99.90
46492;DHT22;32206;51.446;6.792;2023-07-13T08:33:30;19.40;68.40
46492;DHT22;32206;51.446;6.792;2023-07-13T08:35:55;19.40;1.00
46492;DHT22;32206;51.446;6.792;2023-07-13T08:38:22;19.40;1.00
46492;DHT22;32206;51.446;6.792;2023-07-13T08:40:55;19.40;53.90
46492;DHT22;32206;51.446;6.792;2023-07-13T08:43:36;19.40;99.90
46492;DHT22;32206;51.446;6.792;2023-07-13T08:46:19;19.30;26.90
46492;DHT22;32206;51.446;6.792;2023-07-13T09:03:39;19.50;1.00
46492;DHT22;32206;51.446;6.792;2023-07-13T09:06:07;19.40;1.00
46492;DHT22;32206;51.446;6.792;2023-07-13T09:08:48;19.40;55.40
46492;DHT22;32206;51.446;6.792;2023-07-13T09:14:34;19.40;16.90
46492;DHT22;32206;51.446;6.792;2023-07-13T09:22:59;19.60;1.00
46492;DHT22;32206;51.446;6.792;2023-07-13T09:25:32;19.60;83.50
46492;DHT22;32206;51.446;6.792;2023-07-13T09:28:20;19.70;1.00
46492;DHT22;32206;51.446;6.792;2023-07-13T09:31:02;19.90;99.90
46492;DHT22;32206;51.446;6.792;2023-07-13T09:33:29;20.00;99.90
46492;DHT22;32206;51.446;6.792;2023-07-13T09:35:57;20.10;1.00
46492;DHT22;32206;51.446;6.792;2023-07-13T09:38:26;20.10;1.00
46492;DHT22;32206;51.446;6.792;2023-07-13T09:47:39;20.10;1.00
46492;DHT22;32206;51.446;6.792;2023-07-13T09:50:15;20.10;99.90
46492;DHT22;32206;51.446;6.792;2023-07-13T09:52:49;20.00;1.00
46492;DHT22;32206;51.446;6.792;2023-07-13T09:55:35;19.90;1.00
46492;DHT22;32206;51.446;6.792;2023-07-13T10:00:37;19.90;99.90
46492;DHT22;32206;51.446;6.792;2023-07-13T10:03:29;20.30;1.00
46492;DHT22;32206;51.446;6.792;2023-07-13T10:08:59;20.90;1.00
46492;DHT22;32206;51.446;6.792;2023-07-13T10:11:29;21.10;99.90
46492;DHT22;32206;51.446;6.792;2023-07-13T10:20:39;21.20;99.90
46492;DHT22;32206;51.446;6.792;2023-07-13T10:23:15;21.20;99.90
46492;DHT22;32206;51.446;6.792;2023-07-13T10:25:46;20.90;26.10
46492;DHT22;32206;51.446;6.792;2023-07-13T10:28:36;21.00;99.90
46492;DHT22;32206;51.446;6.792;2023-07-13T10:31:06;21.00;1.00
46492;DHT22;32206;51.446;6.792;2023-07-13T10:33:35;21.10;1.00
46492;DHT22;32206;51.446;6.792;2023-07-13T10:36:15;21.20;1.00
46492;DHT22;32206;51.446;6.792;2023-07-13T10:38:43;21.30;99.90
46492;DHT22;32206;51.446;6.792;2023-07-13T10:41:15;21.50;99.90
46492;DHT22;32206;51.446;6.792;2023-07-13T10:43:46;21.70;99.90
46492;DHT22;32206;51.446;6.792;2023-07-13T10:49:35;21.80;99.90
46492;DHT22;32206;51.446;6.792;2023-07-13T10:52:02;21.80;99.90
46492;DHT22;32206;51.446;6.792;2023-07-13T10:54:32;21.90;99.90
46492;DHT22;32206;51.446;6.792;2023-07-13T10:59:42;21.80;99.90
46492;DHT22;32206;51.446;6.792;2023-07-13T11:02:36;21.80;99.90
46492;DHT22;32206;51.446;6.792;2023-07-13T11:05:18;21.70;99.90
46492;DHT22;32206;51.446;6.792;2023-07-13T11:20:21;22.20;1.00
46492;DHT22;32206;51.446;6.792;2023-07-13T11:22:52;22.50;1.00
46492;DHT22;32206;51.446;6.792;2023-07-13T11:25:37;22.80;1.00
46492;DHT22;32206;51.446;6.792;2023-07-13T11:28:18;22.80;1.00
46492;DHT22;32206;51.446;6.792;2023-07-13T11:36:03;23.00;1.00
46492;DHT22;32206;51.446;6.792;2023-07-13T11:47:43;23.60;99.90
46492;DHT22;32206;51.446;6.792;2023-07-13T11:50:18;23.60;99.90
46492;DHT22;32206;51.446;6.792;2023-07-13T11:52:44;23.50;99.90
46492;DHT22;32206;51.446;6.792;2023-07-13T11:55:16;23.50;99.90
46492;DHT22;32206;51.446;6.792;2023-07-13T11:57:47;23.60;99.90
46492;DHT22;32206;51.446;6.792;2023-07-13T12:00:21;23.60;99.90
46492;DHT22;32206;51.446;6.792;2023-07-13T12:02:51;23.70;99.90
46492;DHT22;32206;51.446;6.792;2023-07-13T12:05:19;23.70;99.90
46492;DHT22;32206;51.446;6.792;2023-07-13T12:07:47;23.80;99.90
46492;DHT22;32206;51.446;6.792;2023-07-13T12:10:27;24.00;99.90
46492;DHT22;32206;51.446;6.792;2023-07-13T12:13:03;23.90;99.90
46492;DHT22;32206;51.446;6.792;2023-07-13T12:18:56;24.00;99.90
46492;DHT22;32206;51.446;6.792;2023-07-13T12:21:36;24.30;99.90
46492;DHT22;32206;51.446;6.792;2023-07-13T12:24:03;24.40;99.90
46492;DHT22;32206;51.446;6.792;2023-07-13T12:26:30;24.30;99.90
46492;DHT22;32206;51.446;6.792;2023-07-13T12:28:57;24.40;99.90
46492;DHT22;32206;51.446;6.792;2023-07-13T12:31:35;24.20;99.90
46492;DHT22;32206;51.446;6.792;2023-07-13T12:37:56;23.50;99.90
46492;DHT22;32206;51.446;6.792;2023-07-13T12:40:27;23.40;99.90
46492;DHT22;32206;51.446;6.792;2023-07-13T12:42:54;23.20;99.90
46492;DHT22;32206;51.446;6.792;2023-07-13T12:45:27;23.10;99.90
46492;DHT22;32206;51.446;6.792;2023-07-13T12:47:58;22.90;99.90
46492;DHT22;32206;51.446;6.792;2023-07-13T12:50:50;22.80;99.90
46492;DHT22;32206;51.446;6.792;2023-07-13T12:53:23;22.60;99.90
46492;DHT22;32206;51.446;6.792;2023-07-13T12:55:54;22.50;99.90
46492;DHT22;32206;51.446;6.792;2023-07-13T13:00:55;22.40;99.90
46492;DHT22;32206;51.446;6.792;2023-07-13T13:10:13;22.20;1.00
46492;DHT22;32206;51.446;6.792;2023-07-13T13:12:39;22.10;1.00
46492;DHT22;32206;51.446;6.792;2023-07-13T13:15:08;22.10;1.00
46492;DHT22;32206;51.446;6.792;2023-07-13T13:17:34;22.30;1.00
46492;DHT22;32206;51.446;6.792;2023-07-13T13:20:00;22.40;1.00
46492;DHT22;32206;51.446;6.792;2023-07-13T13:22:25;22.60;1.00
46492;DHT22;32206;51.446;6.792;2023-07-13T13:28:45;22.80;99.90
46492;DHT22;32206;51.446;6.792;2023-07-13T13:31:11;23.00;99.90
46492;DHT22;32206;51.446;6.792;2023-07-13T13:33:41;23.00;99.90
46492;DHT22;32206;51.446;6.792;2023-07-13T13:36:19;23.10;99.90
46492;DHT22;32206;51.446;6.792;2023-07-13T13:38:47;23.40;99.90
46492;DHT22;32206;51.446;6.792;2023-07-13T13:41:14;23.30;99.90
46492;DHT22;32206;51.446;6.792;2023-07-13T13:43:41;23.30;99.90
46492;DHT22;32206;51.446;6.792;2023-07-13T13:46:18;23.30;99.90
46492;DHT22;32206;51.446;6.792;2023-07-13T13:48:45;23.30;99.90
46492;DHT22;32206;51.446;6.792;2023-07-13T13:51:24;23.30;99.90
46492;DHT22;32206;51.446;6.792;2023-07-13T13:53:50;23.30;99.90
46492;DHT22;32206;51.446;6.792;2023-07-13T13:56:18;23.30;99.90
46492;DHT22;32206;51.446;6.792;2023-07-13T13:58:44;23.50;99.90
46492;DHT22;32206;51.446;6.792;2023-07-13T14:01:22;23.40;99.90
46492;DHT22;32206;51.446;6.792;2023-07-13T14:10:35;22.90;1.00
46492;DHT22;32206;51.446;6.792;2023-07-13T14:13:00;22.70;99.90
46492;DHT22;32206;51.446;6.792;2023-07-13T14:18:56;22.50;1.00
46492;DHT22;32206;51.446;6.792;2023-07-13T14:21:25;22.30;97.30
46492;DHT22;32206;51.446;6.792;2023-07-13T14:23:51;22.20;99.90
46492;DHT22;32206;51.446;6.792;2023-07-13T14:26:24;22.20;99.90
46492;DHT22;32206;51.446;6.792;2023-07-13T14:28:54;22.20;99.90
46492;DHT22;32206;51.446;6.792;2023-07-13T14:31:20;22.10;99.90
46492;DHT22;32206;51.446;6.792;2023-07-13T14:34:20;22.10;1.00
46492;DHT22;32206;51.446;6.792;2023-07-13T14:36:49;22.10;99.90
46492;DHT22;32206;51.446;6.792;2023-07-13T14:39:19;22.20;13.30
46492;DHT22;32206;51.446;6.792;2023-07-13T14:41:45;22.40;1.00
46492;DHT22;32206;51.446;6.792;2023-07-13T14:44:16;22.60;99.90
46492;DHT22;32206;51.446;6.792;2023-07-13T14:46:44;22.60;1.00
46492;DHT22;32206;51.446;6.792;2023-07-13T14:49:31;22.60;99.90
46492;DHT22;32206;51.446;6.792;2023-07-13T14:52:01;22.60;1.00
46492;DHT22;32206;51.446;6.792;2023-07-13T15:01:15;22.40;47.70
46492;DHT22;32206;51.446;6.792;2023-07-13T15:03:45;22.50;94.80
46492;DHT22;32206;51.446;6.792;2023-07-13T15:06:12;22.40;79.20
46492;DHT22;32206;51.446;6.792;2023-07-13T15:08:38;22.30;99.90
46492;DHT22;32206;51.446;6.792;2023-07-13T15:11:04;22.30;99.90
46492;DHT22;32206;51.446;6.792;2023-07-13T15:13:30;22.30;99.90
46492;DHT22;32206;51.446;6.792;2023-07-13T15:15:56;22.30;99.90
46492;DHT22;32206;51.446;6.792;2023-07-13T15:18:23;22.10;99.90
46492;DHT22;32206;51.446;6.792;2023-07-13T15:20:51;21.80;99.90
46492;DHT22;32206;51.446;6.792;2023-07-13T15:23:18;21.50;99.90
46492;DHT22;32206;51.446;6.792;2023-07-13T15:29:07;20.90;1.00
46492;DHT22;32206;51.446;6.792;2023-07-13T15:31:34;20.80;99.90
46492;DHT22;32206;51.446;6.792;2023-07-13T15:34:07;20.60;99.90
46492;DHT22;32206;51.446;6.792;2023-07-13T15:43:19;20.20;99.90
46492;DHT22;32206;51.446;6.792;2023-07-13T15:45:46;20.10;99.90
46492;DHT22;32206;51.446;6.792;2023-07-13T15:48:21;20.10;99.90
46492;DHT22;32206;51.446;6.792;2023-07-13T15:50:50;20.10;99.90
46492;DHT22;32206;51.446;6.792;2023-07-13T15:53:35;20.10;99.90
46492;DHT22;32206;51.446;6.792;2023-07-13T15:56:17;20.00;99.90
46492;DHT22;32206;51.446;6.792;2023-07-13T15:58:43;20.00;45.20
46492;DHT22;32206;51.446;6.792;2023-07-13T16:01:11;19.90;1.00
46492;DHT22;32206;51.446;6.792;2023-07-13T16:03:37;19.90;99.90
46492;DHT22;32206;51.446;6.792;2023-07-13T16:06:03;20.00;1.00
46492;DHT22;32206;51.446;6.792;2023-07-13T16:08:36;20.00;1.90
46492;DHT22;32206;51.446;6.792;2023-07-13T16:11:05;20.00;99.90
46492;DHT22;32206;51.446;6.792;2023-07-13T16:13:31;19.90;1.00
46492;DHT22;32206;51.446;6.792;2023-07-13T16:19:18;20.00;1.00
46492;DHT22;32206;51.446;6.792;2023-07-13T16:21:54;20.10;82.90
46492;DHT22;32206;51.446;6.792;2023-07-13T16:27:42;20.20;61.90
46492;DHT22;32206;51.446;6.792;2023-07-13T16:30:17;20.20;1.00
46492;DHT22;32206;51.446;6.792;2023-07-13T16:32:44;20.20;1.00
46492;DHT22;32206;51.446;6.792;2023-07-13T16:35:10;20.10;1.00
46492;DHT22;32206;51.446;6.792;2023-07-13T16:37:37;20.10;2.70
46492;DHT22;32206;51.446;6.792;2023-07-13T16:40:23;20.10;99.90
46492;DHT22;32206;51.446;6.792;2023-07-13T16:42:50;20.10;99.90
46492;DHT22;32206;51.446;6.792;2023-07-13T16:48:46;20.20;99.90
46492;DHT22;32206;51.446;6.792;2023-07-13T16:51:12;20.10;1.00
46492;DHT22;32206;51.446;6.792;2023-07-13T16:53:38;20.10;3.60
46492;DHT22;32206;51.446;6.792;2023-07-13T16:56:14;20.10;41.10
46492;DHT22;32206;51.446;6.792;2023-07-13T16:58:42;20.10;99.90
46492;DHT22;32206;51.446;6.792;2023-07-13T17:01:07;20.20;1.00
46492;DHT22;32206;51.446;6.792;2023-07-13T17:03:33;20.20;99.90
46492;DHT22;32206;51.446;6.792;2023-07-13T17:05:59;20.20;99.90
46492;DHT22;32206;51.446;6.792;2023-07-13T17:08:31;20.20;26.20
46492;DHT22;32206;51.446;6.792;2023-07-13T17:11:00;20.20;99.90
46492;DHT22;32206;51.446;6.792;2023-07-13T17:13:27;20.10;99.90
46492;DHT22;32206;51.446;6.792;2023-07-13T17:15:54;20.20;61.40
46492;DHT22;32206;51.446;6.792;2023-07-13T17:18:31;20.20;1.00
46492;DHT22;32206;51.446;6.792;2023-07-13T17:24:29;20.30;99.90
46492;DHT22;32206;51.446;6.792;2023-07-13T17:26:57;20.40;1.00
46492;DHT22;32206;51.446;6.792;2023-07-13T17:29:23;20.40;1.00
46492;DHT22;32206;51.446;6.792;2023-07-13T17:31:49;20.50;1.00
46492;DHT22;32206;51.446;6.792;2023-07-13T17:37:59;20.60;1.00
46492;DHT22;32206;51.446;6.792;2023-07-13T17:40:25;20.60;99.90
46492;DHT22;32206;51.446;6.792;2023-07-13T17:42:51;20.70;99.90
46492;DHT22;32206;51.446;6.792;2023-07-13T17:48:52;20.70;92.50
46492;DHT22;32206;51.446;6.792;2023-07-13T17:51:19;20.90;99.90
46492;DHT22;32206;51.446;6.792;2023-07-13T17:57:10;21.00;1.00
46492;DHT22;32206;51.446;6.792;2023-07-13T17:59:36;21.00;1.00
46492;DHT22;32206;51.446;6.792;2023-07-13T18:02:01;20.90;1.00
46492;DHT22;32206;51.446;6.792;2023-07-13T18:04:28;20.90;1.00
46492;DHT22;32206;51.446;6.792;2023-07-13T18:06:54;20.90;1.00
46492;DHT22;32206;51.446;6.792;2023-07-13T18:09:24;21.00;1.00
46492;DHT22;32206;51.446;6.792;2023-07-13T18:11:52;20.80;1.00
46492;DHT22;32206;51.446;6.792;2023-07-13T18:14:18;20.90;1.00
46492;DHT22;32206;51.446;6.792;2023-07-13T18:17:04;20.90;1.00
46492;DHT22;32206;51.446;6.792;2023-07-13T18:19:33;20.90;1.00
46492;DHT22;32206;51.446;6.792;2023-07-13T18:22:01;20.80;1.00
46492;DHT22;32206;51.446;6.792;2023-07-13T18:24:28;20.70;1.00
46492;DHT22;32206;51.446;6.792;2023-07-13T18:26:55;20.60;1.00
46492;DHT22;32206;51.446;6.792;2023-07-13T18:29:21;20.70;1.00
46492;DHT22;32206;51.446;6.792;2023-07-13T18:31:47;20.60;2.10
46492;DHT22;32206;51.446;6.792;2023-07-13T18:40:58;20.60;92.90
46492;DHT22;32206;51.446;6.792;2023-07-13T18:46:46;20.70;79.00
46492;DHT22;32206;51.446;6.792;2023-07-13T18:49:12;20.60;60.80
46492;DHT22;32206;51.446;6.792;2023-07-13T18:51:39;20.50;99.90
46492;DHT22;32206;51.446;6.792;2023-07-13T18:54:11;20.40;99.90
46492;DHT22;32206;51.446;6.792;2023-07-13T18:56:37;20.40;99.90
46492;DHT22;32206;51.446;6.792;2023-07-13T18:59:03;20.40;99.90
46492;DHT22;32206;51.446;6.792;2023-07-13T19:01:34;20.40;99.90
46492;DHT22;32206;51.446;6.792;2023-07-13T19:04:19;20.40;99.90
46492;DHT22;32206;51.446;6.792;2023-07-13T19:10:14;20.40;99.90
46492;DHT22;32206;51.446;6.792;2023-07-13T19:12:43;20.30;1.00
46492;DHT22;32206;51.446;6.792;2023-07-13T19:18:31;20.30;1.00
46492;DHT22;32206;51.446;6.792;2023-07-13T19:20:58;20.20;99.90
46492;DHT22;32206;51.446;6.792;2023-07-13T19:23:37;20.20;1.00
46492;DHT22;32206;51.446;6.792;2023-07-13T19:26:07;20.20;1.00
46492;DHT22;32206;51.446;6.792;2023-07-13T19:28:42;20.20;1.00
46492;DHT22;32206;51.446;6.792;2023-07-13T19:31:19;20.20;1.00
46492;DHT22;32206;51.446;6.792;2023-07-13T19:33:46;20.20;1.00
46492;DHT22;32206;51.446;6.792;2023-07-13T19:36:14;20.20;1.00
46492;DHT22;32206;51.446;6.792;2023-07-13T19:38:40;20.10;40.60
46492;DHT22;32206;51.446;6.792;2023-07-13T19:41:12;20.10;99.90
46492;DHT22;32206;51.446;6.792;2023-07-13T19:43:39;20.00;99.90
46492;DHT22;32206;51.446;6.792;2023-07-13T19:49:27;20.00;99.90
46492;DHT22;32206;51.446;6.792;2023-07-13T19:51:53;20.00;99.90
46492;DHT22;32206;51.446;6.792;2023-07-13T19:54:19;20.00;99.90
46492;DHT22;32206;51.446;6.792;2023-07-13T19:56:45;20.00;99.90
46492;DHT22;32206;51.446;6.792;2023-07-13T19:59:27;19.90;99.90
46492;DHT22;32206;51.446;6.792;2023-07-13T20:01:53;19.90;99.90
46492;DHT22;32206;51.446;6.792;2023-07-13T20:04:19;19.90;99.90
46492;DHT22;32206;51.446;6.792;2023-07-13T20:06:45;19.90;1.00
46492;DHT22;32206;51.446;6.792;2023-07-13T20:09:23;19.90;1.00
46492;DHT22;32206;51.446;6.792;2023-07-13T20:11:49;19.90;1.00
46492;DHT22;32206;51.446;6.792;2023-07-13T20:14:25;19.90;99.90
46492;DHT22;32206;51.446;6.792;2023-07-13T20:17:01;19.80;1.00
46492;DHT22;32206;51.446;6.792;2023-07-13T20:19:31;19.90;1.00